Weather History for Show Low, AZ

Change the Weather History Date:

Wednesday, November 21, 2012

  Actual Average Record
Temperature  
Mean Temperature 47 °F -  
Max Temperature 62 °F 51 °F 68 °F (1966)
Min Temperature 32 °F 31 °F 4 °F (1975)
Degree Days  
Heating Degree Days 18    
Moisture  
Dew Point 24 °F    
Average Humidity 44    
Maximum Humidity 69    
Minimum Humidity 20    
Precipitation  
Precipitation 0.00 in - - ()
Sea Level Pressure  
Sea Level Pressure 30.22 in    
Wind  
Wind Speed 7 mph (SSW)    
Max Wind Speed 15 mph    
Max Gust Speed 22 mph    
Visibility 10 miles    
Events      
Averages and records for this station are not official NWS values.
T = Trace of Precipitation, MM = Missing Value Source: NWS Daily Summary

Daily Weather History Graph

Daily Weather History Graph

Search for Another Location

Airport:

Trip Planner

Search our weather history database for the weather conditions in past years. The results will help you decide how hot, cold, wet, or windy it might be!

Date:

Astronomy

Nov. 21, 2012 Rise Set
Actual Time 6:59 AM MST 5:12 PM MST
Civil Twilight 6:32 AM MST 5:39 PM MST
Nautical Twilight 6:01 AM MST 6:10 PM MST
Astronomical Twilight 5:31 AM MST 6:40 PM MST
Moon 1:16 PM MST (11/21) 12:37 AM MST (11/21)
Length of Visible Light 11h 07m
Length of Day
10h 13m
Waxing Gibbous, 62% of the Moon is Illuminated
Nov 21
Waxing Gibbous
Nov 28
Full
Dec 6
Last Quarter
Dec 13
New
Dec 19
First Quarter

Hourly Weather History & Observations

Time (MST) Temp. Windchill Dew Point Humidity Pressure Visibility Wind Dir Wind Speed Gust Speed Precip Events Conditions
12:15 AM 41.0 °F 34.7 °F 19.4 °F 42% 30.25 in 10.0 mi South 10.4 mph - N/A   Clear
12:35 AM 41.0 °F 35.2 °F 19.4 °F 42% 30.25 in 10.0 mi South 9.2 mph - N/A   Clear
12:55 AM 39.2 °F 33.0 °F 19.4 °F 45% 30.24 in 10.0 mi South 9.2 mph - N/A   Clear
1:15 AM 39.2 °F 33.0 °F 19.4 °F 45% 30.24 in 10.0 mi South 9.2 mph - N/A   Clear
1:35 AM 37.4 °F 30.8 °F 19.4 °F 48% 30.24 in 8.0 mi South 9.2 mph - N/A   Clear
1:55 AM 37.4 °F - 19.4 °F 48% 30.25 in 8.0 mi Calm Calm - N/A   Clear
2:15 AM 35.6 °F - 19.4 °F 52% 30.25 in 10.0 mi Calm Calm - N/A   Clear
2:35 AM 35.6 °F - 19.4 °F 52% 30.25 in 10.0 mi Calm Calm - N/A   Clear
2:55 AM 33.8 °F 28.6 °F 19.4 °F 56% 30.24 in 10.0 mi South 5.8 mph - N/A   Clear
3:15 AM 39.2 °F 34.2 °F 21.2 °F 49% 30.24 in 10.0 mi SSE 6.9 mph - N/A   Clear
3:35 AM 39.2 °F 34.2 °F 19.4 °F 45% 30.23 in 10.0 mi South 6.9 mph - N/A   Clear
3:55 AM 39.2 °F 34.2 °F 19.4 °F 45% 30.23 in 10.0 mi South 6.9 mph - N/A   Clear
4:15 AM 37.4 °F 33.8 °F 21.2 °F 52% 30.23 in 10.0 mi South 4.6 mph - N/A   Clear
4:35 AM 37.4 °F 33.8 °F 21.2 °F 52% 30.23 in 10.0 mi South 4.6 mph - N/A   Clear
4:55 AM 37.4 °F - 21.2 °F 52% 30.22 in 10.0 mi Calm Calm - N/A   Clear
5:15 AM 39.2 °F - 21.2 °F 49% 30.23 in 10.0 mi Calm Calm - N/A   Clear
5:35 AM 35.6 °F - 23.0 °F 60% 30.22 in 10.0 mi Calm Calm - N/A   Clear
5:55 AM 35.6 °F - 23.0 °F 60% 30.23 in 10.0 mi Calm Calm - N/A   Clear
6:15 AM 37.4 °F - 23.0 °F 56% 30.23 in 10.0 mi Calm Calm - N/A   Clear
6:35 AM 37.4 °F - 23.0 °F 56% 30.23 in 10.0 mi Calm Calm - N/A   Clear
6:55 AM 37.4 °F - 23.0 °F 56% 30.24 in 10.0 mi Calm Calm - N/A   Unknown
7:15 AM 32.0 °F - 23.0 °F 69% 30.24 in 9.0 mi Calm Calm - N/A   Clear
7:35 AM 35.6 °F 31.7 °F 23.0 °F 60% 30.25 in 10.0 mi South 4.6 mph - N/A   Clear
7:55 AM 37.4 °F 33.8 °F 24.8 °F 60% 30.25 in 10.0 mi South 4.6 mph - N/A   Clear
8:15 AM 39.2 °F 35.9 °F 26.6 °F 61% 30.25 in 10.0 mi South 4.6 mph - N/A   Clear
8:35 AM 41.0 °F 38.0 °F 28.4 °F 61% 30.26 in 10.0 mi South 4.6 mph - N/A   Clear
8:55 AM 46.4 °F 44.3 °F 30.2 °F 53% 30.25 in 10.0 mi South 4.6 mph - N/A   Clear
9:15 AM 50.0 °F - 32.0 °F 50% 30.26 in 10.0 mi SSW 3.5 mph - N/A   Clear
9:35 AM 53.6 °F - 32.0 °F 44% 30.26 in 10.0 mi South 5.8 mph - N/A   Clear
9:55 AM 57.2 °F - 32.0 °F 38% 30.25 in 10.0 mi South 12.7 mph - N/A   Clear
10:15 AM 57.2 °F - 32.0 °F 38% 30.25 in 10.0 mi South 12.7 mph - N/A   Clear
10:35 AM 59.0 °F - 30.2 °F 34% 30.25 in 10.0 mi SSW 12.7 mph 21.9 mph N/A   Clear
10:55 AM 59.0 °F - 28.4 °F 31% 30.24 in 10.0 mi South 15.0 mph - N/A   Clear
11:15 AM 60.8 °F - 26.6 °F 27% 30.24 in 10.0 mi South 13.8 mph 18.4 mph N/A   Clear
11:35 AM 60.8 °F - 24.8 °F 25% 30.23 in 10.0 mi SW 12.7 mph - N/A   Clear
11:55 AM 62.6 °F - 24.8 °F 24% 30.23 in 10.0 mi SSW 13.8 mph 17.3 mph N/A   Clear
12:15 PM 62.6 °F - 24.8 °F 24% 30.22 in 10.0 mi South 15.0 mph 19.6 mph N/A   Clear
12:35 PM 62.6 °F - 24.8 °F 24% 30.21 in 10.0 mi SSW 11.5 mph 16.1 mph N/A   Clear
12:55 PM 62.6 °F - 24.8 °F 24% 30.20 in 10.0 mi WSW 15.0 mph 20.7 mph N/A   Clear
1:15 PM 62.6 °F - 24.8 °F 24% 30.19 in 10.0 mi SW 15.0 mph - N/A   Clear
1:35 PM 62.6 °F - 23.0 °F 22% 30.19 in 10.0 mi SSW 9.2 mph 21.9 mph N/A   Clear
1:55 PM 62.6 °F - 21.2 °F 20% 30.18 in 10.0 mi SW 13.8 mph 20.7 mph N/A   Clear
2:15 PM 62.6 °F - 26.6 °F 26% 30.18 in 10.0 mi South 12.7 mph - N/A   Clear
2:35 PM 62.6 °F - 24.8 °F 24% 30.17 in 10.0 mi WSW 11.5 mph 19.6 mph N/A   Clear
2:55 PM 62.6 °F - 24.8 °F 24% 30.17 in 10.0 mi SW 12.7 mph - N/A   Clear
3:15 PM 62.6 °F - 24.8 °F 24% 30.16 in 10.0 mi SW 12.7 mph 17.3 mph N/A   Clear
3:35 PM 62.6 °F - 26.6 °F 26% 30.16 in 10.0 mi WSW 13.8 mph - N/A   Clear
3:55 PM 62.6 °F - 24.8 °F 24% 30.17 in 10.0 mi SW 13.8 mph 18.4 mph N/A   Clear
4:15 PM 60.8 °F - 26.6 °F 27% 30.17 in 10.0 mi SW 12.7 mph 20.7 mph N/A   Clear
4:35 PM 59.0 °F - 24.8 °F 27% 30.16 in 10.0 mi SW 10.4 mph 17.3 mph N/A   Clear
4:55 PM 57.2 °F - 26.6 °F 31% 30.17 in 10.0 mi SW 11.5 mph - N/A   Clear
5:15 PM 55.4 °F - 24.8 °F 31% 30.17 in 10.0 mi SW 10.4 mph - N/A   Clear
5:35 PM 51.8 °F - 23.0 °F 33% 30.18 in 10.0 mi SW 6.9 mph - N/A   Clear
5:55 PM 50.0 °F - 21.2 °F 32% 30.18 in 10.0 mi SW 5.8 mph - N/A   Clear
6:15 PM 48.2 °F - 21.2 °F 34% 30.19 in 10.0 mi SW 5.8 mph - N/A   Clear
6:35 PM 46.4 °F 43.5 °F 21.2 °F 37% 30.20 in 10.0 mi SW 5.8 mph - N/A   Clear
6:55 PM 44.6 °F 41.4 °F 23.0 °F 43% 30.20 in 10.0 mi SSW 5.8 mph - N/A   Clear
7:15 PM 42.8 °F 39.3 °F 23.0 °F 46% 30.21 in 10.0 mi South 5.8 mph - N/A   Clear
7:35 PM 42.8 °F 39.3 °F 24.8 °F 49% 30.21 in 10.0 mi South 5.8 mph - N/A   Clear
7:55 PM 41.0 °F 38.0 °F 24.8 °F 53% 30.21 in 10.0 mi South 4.6 mph - N/A   Clear
8:15 PM 41.0 °F 38.0 °F 24.8 °F 53% 30.21 in 10.0 mi SSW 4.6 mph - N/A   Clear
8:35 PM 39.2 °F 35.0 °F 24.8 °F 56% 30.22 in 10.0 mi South 5.8 mph - N/A   Clear
8:55 PM 39.2 °F 34.2 °F 23.0 °F 52% 30.22 in 10.0 mi South 6.9 mph - N/A   Clear
9:15 PM 39.2 °F 33.6 °F 23.0 °F 52% 30.21 in 10.0 mi South 8.1 mph - N/A   Clear
9:35 PM 39.2 °F 34.2 °F 23.0 °F 52% 30.21 in 10.0 mi SSE 6.9 mph - N/A   Clear
9:55 PM 39.2 °F 35.9 °F 23.0 °F 52% 30.21 in 10.0 mi South 4.6 mph - N/A   Clear
10:15 PM 39.2 °F 35.0 °F 23.0 °F 52% 30.21 in 10.0 mi SSE 5.8 mph - N/A   Clear
10:35 PM 37.4 °F 30.8 °F 24.8 °F 60% 30.20 in 10.0 mi South 9.2 mph - N/A   Clear
10:55 PM 39.2 °F 35.9 °F 24.8 °F 56% 30.20 in 10.0 mi South 4.6 mph - N/A   Clear
11:15 PM 37.4 °F 34.9 °F 24.8 °F 60% 30.20 in 10.0 mi SSW 3.5 mph - N/A   Clear
11:35 PM 35.6 °F 31.7 °F 24.8 °F 65% 30.21 in 10.0 mi South 4.6 mph - N/A   Clear
11:55 PM 37.4 °F 32.1 °F 24.8 °F 60% 30.20 in 10.0 mi South 6.9 mph - N/A   Clear